createdAt,value
2023-08-16T00:00:01.952Z,14.77
2023-08-16T00:05:04.541Z,14.74
2023-08-16T00:10:11.516Z,14.65
2023-08-16T00:15:13.075Z,14.70
2023-08-16T00:20:14.824Z,14.62
2023-08-16T00:25:16.548Z,14.66
2023-08-16T00:30:18.390Z,14.63
2023-08-16T00:35:20.346Z,14.61
2023-08-16T00:40:21.944Z,14.58
2023-08-16T00:45:23.839Z,14.60
2023-08-16T00:50:26.032Z,14.59
2023-08-16T00:55:27.613Z,14.55
2023-08-16T01:00:29.778Z,14.54
2023-08-16T01:05:32.908Z,14.51
2023-08-16T01:10:50.611Z,14.52
2023-08-16T01:15:53.272Z,14.49
2023-08-16T01:20:56.978Z,14.45
2023-08-16T01:26:16.005Z,14.51
2023-08-16T01:31:17.654Z,14.48
2023-08-16T01:36:19.202Z,14.43
2023-08-16T01:41:32.482Z,14.48
2023-08-16T01:46:34.771Z,14.42
2023-08-16T01:51:36.903Z,14.37
2023-08-16T01:56:38.413Z,14.32
2023-08-16T02:01:40.052Z,14.27
2023-08-16T02:06:41.743Z,14.26
2023-08-16T02:11:43.332Z,14.21
2023-08-16T02:16:44.924Z,14.15
2023-08-16T02:21:46.435Z,14.18
2023-08-16T02:26:47.990Z,14.10
2023-08-16T02:31:49.504Z,14.10
2023-08-16T02:36:51.027Z,14.05
2023-08-16T02:41:54.941Z,14.04
2023-08-16T02:46:56.587Z,14.03
2023-08-16T02:51:58.230Z,13.94
2023-08-16T02:56:59.797Z,13.98
2023-08-16T03:02:01.757Z,14.02
2023-08-16T03:07:03.420Z,13.97
2023-08-16T03:12:05.995Z,13.89
2023-08-16T03:17:07.549Z,13.83
2023-08-16T03:22:09.272Z,13.85
2023-08-16T03:27:10.785Z,13.97
2023-08-16T03:32:12.294Z,13.89
2023-08-16T03:37:13.819Z,13.84
2023-08-16T03:42:15.411Z,13.85
2023-08-16T03:47:16.944Z,13.76
2023-08-16T03:52:18.547Z,13.75
2023-08-16T03:57:20.217Z,13.69
2023-08-16T04:02:21.872Z,13.67
2023-08-16T04:07:23.913Z,13.60
2023-08-16T04:12:25.603Z,13.68
2023-08-16T04:17:27.183Z,13.65
2023-08-16T04:22:28.714Z,13.61
2023-08-16T04:27:30.313Z,13.61
2023-08-16T04:32:31.881Z,13.59
2023-08-16T04:37:33.497Z,13.66
2023-08-16T04:42:36.050Z,13.67
2023-08-16T04:47:37.740Z,13.72
2023-08-16T04:52:39.619Z,13.78
2023-08-16T04:57:41.173Z,13.85
2023-08-16T05:02:42.870Z,13.89
2023-08-16T05:07:44.526Z,13.97
2023-08-16T05:12:46.451Z,14.03
2023-08-16T05:17:48.053Z,14.04
2023-08-16T05:22:49.640Z,14.10
2023-08-16T05:27:51.234Z,14.17
2023-08-16T05:32:56.412Z,14.23
2023-08-16T05:38:01.242Z,14.29
2023-08-16T05:43:03.033Z,14.36
2023-08-16T05:48:05.109Z,14.43
2023-08-16T05:53:06.739Z,14.49
2023-08-16T05:58:09.173Z,14.58
2023-08-16T06:03:10.829Z,14.71
2023-08-16T06:08:12.470Z,14.89
2023-08-16T06:13:14.045Z,15.14
2023-08-16T06:18:16.026Z,15.48
2023-08-16T06:23:17.754Z,15.80
2023-08-16T06:28:19.339Z,16.16
2023-08-16T06:33:23.475Z,16.45
2023-08-16T06:38:25.044Z,16.72
2023-08-16T06:43:26.636Z,17.08
2023-08-16T06:48:28.664Z,17.43
2023-08-16T06:53:31.456Z,17.84
2023-08-16T06:58:33.024Z,18.18
2023-08-16T07:03:34.837Z,18.49
2023-08-16T07:08:36.536Z,18.69
2023-08-16T07:13:38.162Z,18.83
2023-08-16T07:18:39.802Z,18.95
2023-08-16T07:23:41.433Z,19.08
2023-08-16T07:28:43.034Z,19.17
2023-08-16T07:33:44.647Z,19.36
2023-08-16T07:38:49.016Z,19.46
2023-08-16T07:43:50.567Z,19.52
2023-08-16T07:48:52.113Z,19.40
2023-08-16T07:53:53.678Z,19.42
2023-08-16T07:58:55.256Z,19.42
2023-08-16T08:03:56.779Z,19.35
2023-08-16T08:08:58.384Z,19.46
2023-08-16T08:14:00.522Z,19.63
2023-08-16T08:19:02.187Z,19.85
2023-08-16T08:24:04.170Z,19.79
2023-08-16T08:29:05.808Z,19.88
2023-08-16T08:34:07.406Z,19.94
2023-08-16T08:39:09.052Z,20.26
2023-08-16T08:44:10.652Z,20.21
2023-08-16T08:49:12.836Z,20.13
2023-08-16T08:54:14.466Z,20.25
2023-08-16T08:59:16.214Z,20.26
2023-08-16T09:04:18.431Z,20.38
2023-08-16T09:09:23.931Z,20.50
2023-08-16T09:14:25.834Z,20.68
2023-08-16T09:19:27.372Z,20.71
2023-08-16T09:24:29.157Z,20.85
2023-08-16T09:29:32.156Z,21.01
2023-08-16T09:34:35.630Z,21.28
2023-08-16T09:39:37.484Z,21.39
2023-08-16T09:44:41.938Z,21.40
2023-08-16T09:49:46.968Z,21.38
2023-08-16T09:54:50.348Z,21.57
2023-08-16T09:59:51.992Z,21.82
2023-08-16T10:10:00.895Z,22.23
2023-08-16T10:15:02.746Z,22.43
2023-08-16T10:20:06.232Z,22.44
2023-08-16T10:25:14.203Z,22.36
2023-08-16T10:30:25.718Z,22.21
2023-08-16T10:35:28.385Z,22.74
2023-08-16T10:50:41.800Z,22.99
2023-08-16T10:55:51.972Z,23.15
2023-08-16T11:01:01.012Z,22.95
2023-08-16T11:06:09.988Z,22.93
2023-08-16T11:11:13.497Z,23.00
2023-08-16T11:16:15.104Z,22.83
2023-08-16T11:21:17.996Z,23.31
2023-08-16T11:26:19.811Z,23.33
2023-08-16T11:31:26.061Z,23.52
2023-08-16T11:36:27.730Z,23.22
2023-08-16T11:41:29.276Z,22.91
2023-08-16T11:46:42.129Z,22.81
2023-08-16T11:51:43.715Z,22.96
2023-08-16T11:56:45.287Z,23.10
2023-08-16T12:01:46.915Z,23.51
2023-08-16T12:06:48.518Z,23.56
2023-08-16T12:11:53.260Z,23.28
2023-08-16T12:16:54.927Z,23.10
2023-08-16T12:21:56.565Z,23.01
2023-08-16T12:26:58.189Z,23.07
2023-08-16T12:31:59.840Z,23.05
2023-08-16T12:37:01.358Z,23.22
2023-08-16T12:42:05.261Z,23.18
2023-08-16T12:47:06.882Z,23.10
2023-08-16T12:52:08.458Z,23.31
2023-08-16T12:57:10.043Z,23.20
2023-08-16T13:02:15.055Z,23.13
2023-08-16T13:07:27.168Z,23.07
2023-08-16T13:12:32.964Z,23.10
2023-08-16T13:22:49.468Z,23.10
2023-08-16T13:28:05.751Z,23.30
2023-08-16T13:33:29.657Z,23.19
2023-08-16T13:48:41.734Z,22.86
2023-08-16T13:53:43.560Z,22.89
2023-08-16T13:58:45.290Z,22.87
2023-08-16T14:03:46.875Z,22.87
2023-08-16T14:08:48.482Z,22.81
2023-08-16T14:13:50.050Z,22.92
2023-08-16T14:18:51.753Z,22.70
2023-08-16T14:23:55.997Z,22.64
2023-08-16T14:28:57.808Z,22.53
2023-08-16T14:33:59.363Z,22.53
2023-08-16T14:39:01.266Z,22.56
2023-08-16T14:44:02.963Z,22.50
2023-08-16T14:49:04.812Z,22.50
2023-08-16T14:54:06.757Z,22.53
2023-08-16T14:59:08.409Z,22.46
2023-08-16T15:04:11.676Z,22.50
2023-08-16T15:09:14.110Z,22.62
2023-08-16T15:14:15.681Z,22.47
2023-08-16T15:19:17.301Z,22.42
2023-08-16T15:24:18.878Z,22.40
2023-08-16T15:29:20.464Z,22.41
2023-08-16T15:34:21.994Z,22.25
2023-08-16T15:39:24.028Z,22.33
2023-08-16T15:44:25.568Z,22.25
2023-08-16T15:49:27.362Z,22.26
2023-08-16T15:54:29.004Z,22.17
2023-08-16T15:59:46.307Z,22.18
2023-08-16T16:04:50.355Z,22.19
2023-08-16T16:09:52.088Z,22.16
2023-08-16T16:14:53.666Z,22.26
2023-08-16T16:19:55.232Z,22.25
2023-08-16T16:24:57.175Z,22.32
2023-08-16T16:29:58.770Z,22.33
2023-08-16T16:35:00.401Z,22.32
2023-08-16T16:40:02.145Z,22.26
2023-08-16T16:45:05.313Z,22.33
2023-08-16T16:50:08.302Z,22.37
2023-08-16T16:55:10.035Z,22.21
2023-08-16T17:00:12.047Z,21.97
2023-08-16T17:05:13.634Z,21.75
2023-08-16T17:10:15.269Z,21.81
2023-08-16T17:15:16.970Z,21.67
2023-08-16T17:20:18.650Z,21.55
2023-08-16T17:25:20.262Z,21.47
2023-08-16T17:30:21.984Z,21.43
2023-08-16T17:35:23.566Z,21.27
2023-08-16T17:40:25.109Z,21.09
2023-08-16T17:45:26.714Z,20.93
2023-08-16T17:50:28.319Z,20.83
2023-08-16T17:55:29.943Z,20.78
2023-08-16T18:00:31.486Z,20.85
2023-08-16T18:05:33.491Z,20.85
2023-08-16T18:10:36.296Z,20.68
2023-08-16T18:15:37.826Z,20.50
2023-08-16T18:20:39.471Z,20.37
2023-08-16T18:25:41.010Z,20.27
2023-08-16T18:30:44.314Z,20.25
2023-08-16T18:35:45.968Z,20.21
2023-08-16T18:40:47.601Z,20.14
2023-08-16T18:45:49.270Z,19.99
2023-08-16T18:50:50.859Z,19.88
2023-08-16T18:55:52.444Z,19.88
2023-08-16T19:00:57.936Z,19.80
2023-08-16T19:05:59.588Z,19.54
2023-08-16T19:11:01.147Z,19.55
2023-08-16T19:16:02.689Z,19.47
2023-08-16T19:21:04.381Z,19.42
2023-08-16T19:26:06.455Z,19.35
2023-08-16T19:31:08.041Z,19.23
2023-08-16T19:36:09.633Z,19.19
2023-08-16T19:41:11.182Z,19.12
2023-08-16T19:46:12.771Z,19.08
2023-08-16T19:51:14.376Z,18.98
2023-08-16T19:56:16.283Z,19.02
2023-08-16T20:01:21.289Z,18.91
2023-08-16T20:06:23.290Z,18.84
2023-08-16T20:11:24.937Z,18.77
2023-08-16T20:16:26.670Z,18.72
2023-08-16T20:21:28.241Z,18.61
2023-08-16T20:26:29.832Z,18.52
2023-08-16T20:31:32.378Z,18.34
2023-08-16T20:36:34.321Z,18.31
2023-08-16T20:41:35.907Z,18.29
2023-08-16T20:46:38.976Z,18.19
2023-08-16T20:51:42.146Z,18.04
2023-08-16T20:56:43.822Z,18.06
2023-08-16T21:01:45.413Z,17.98
2023-08-16T21:06:47.005Z,17.83
2023-08-16T21:11:50.152Z,17.94
2023-08-16T21:16:51.736Z,17.88
2023-08-16T21:21:53.327Z,17.85
2023-08-16T21:26:54.894Z,17.70
2023-08-16T21:31:56.772Z,17.59
2023-08-16T21:36:58.719Z,17.63
2023-08-16T21:42:00.316Z,17.68
2023-08-16T21:47:01.856Z,17.63
2023-08-16T21:52:03.564Z,17.55
2023-08-16T21:57:05.218Z,17.47
2023-08-16T22:02:06.742Z,17.51
2023-08-16T22:07:08.284Z,17.46
2023-08-16T22:12:09.945Z,17.40
2023-08-16T22:17:11.487Z,17.36
2023-08-16T22:22:13.138Z,17.35
2023-08-16T22:27:14.688Z,17.30
2023-08-16T22:32:16.230Z,17.31
2023-08-16T22:37:17.743Z,17.34
2023-08-16T22:42:19.340Z,17.27
2023-08-16T22:47:21.024Z,17.23
2023-08-16T22:52:22.620Z,17.26
2023-08-16T22:57:24.505Z,17.26
2023-08-16T23:02:26.353Z,17.20
2023-08-16T23:07:28.127Z,17.17
2023-08-16T23:12:29.941Z,17.09
2023-08-16T23:17:31.582Z,17.06
2023-08-16T23:22:34.029Z,17.01
2023-08-16T23:27:35.932Z,17.03
2023-08-16T23:32:37.753Z,17.00
2023-08-16T23:37:39.318Z,16.96
2023-08-16T23:42:40.942Z,16.91
2023-08-16T23:47:44.232Z,16.89
2023-08-16T23:52:45.902Z,16.93
2023-08-16T23:57:47.452Z,16.92
